• Join FlightAware (Why Join?)
  • Login
  • US Flag 
09:38AM EDT


 

Airport Tracker/Info


-or-


 

Live Flight TrackerFlight Track Log ✈ AWE3425 ✈ 21-Apr-2013 ✈ KPHL - KDCA

Flight Track Log - Related Links

Times and Time Zones

All times are in EDT time to prevent confusion due to time zone crossing. See the AWE3425 flight status page for this flight to view local times or setup timezone preferences in your user account.

Time Position Orientation Groundspeed Altitude Reporting Facility
EDT Latitude Longitude Course Direction KTS MPH feet Rate Location/Type
01:56PM 39.8658 -75.1953 137° Southeast 154 177 1,700  Level FAA TRACON SMA TRACON (SMA)
01:56PM 39.8581 -75.1747 116° Southeast 202 232 2,100 2,100 Climbing FAA TRACON SMA TRACON (SMA)
01:56PM 39.8483 -75.1506 118° Southeast 218 251 3,100 2,400 Climbing FAA TRACON SMA TRACON (SMA)
01:57PM 39.7401 -75.4865 237° Southwest  Level FlightAware Approximate
01:57PM 39.8397 -75.1272 116° Southeast 220 253 3,700  Level FAA TRACON SMA TRACON (SMA)
01:57PM 39.8306 -75.1033 117° Southeast 238 274 4,200 2,520 Climbing FAA TRACON SMA TRACON (SMA)
01:57PM 39.8175 -75.0694 117° Southeast 266 306 5,400 2,820 Climbing FAA TRACON SMA TRACON (SMA)
01:58PM 39.6871 -75.5660 232° Southwest  Level FlightAware Approximate
01:58PM 39.8031 -75.0511 136° Southeast 266 306 6,000  Level FAA TRACON SMA TRACON (SMA)
01:58PM 39.7842 -75.0433 162° South 273 314 6,600 2,460 Climbing FAA TRACON SMA TRACON (SMA)
01:58PM 39.7575 -75.0592 205° Southwest 275 316 7,700 3,120 Climbing FAA TRACON SMA TRACON (SMA)
01:59PM 39.6615 -75.6624 264° West  Level FlightAware Approximate
01:59PM 39.7464 -75.0922 246° West 275 316 8,800  Level FAA TRACON SMA TRACON (SMA)
01:59PM 39.7450 -75.1228 267° West 271 312 9,600 1,860 Climbing FAA TRACON SMA TRACON (SMA)
01:59PM 39.7417 -75.1528 262° West 274 315 10,000 600 Climbing FAA TRACON SMA TRACON (SMA)
02:00PM 39.6527 -75.7676 264° West  Level FlightAware Approximate
02:00PM 39.7361 -75.1919 260° West 280 322 10,000  Level FAA TRACON SMA TRACON (SMA)
02:00PM 39.7319 -75.2225 260° West 276 318 10,000  Level FAA TRACON SMA TRACON (SMA)
02:00PM 39.7281 -75.2514 260° West 273 314 10,000  Level FAA TRACON SMA TRACON (SMA)
02:01PM 39.7183 -75.3200 260° West 275 316 10,000  Level FAA TRACON SMA TRACON (SMA)
02:01PM 39.7142 -75.3503 260° West 274 315 10,000  Level FAA TRACON SMA TRACON (SMA)
02:02PM 39.7092 -75.3878 260° West 274 315 10,000  Level FAA TRACON SMA TRACON (SMA)
02:02PM 39.7006 -75.4475 259° West 273 314 10,000  Level FAA TRACON SMA TRACON (SMA)
02:03PM 39.6944 -75.4831 257° West 271 312 10,000  Level FAA TRACON SMA TRACON (SMA)
02:03PM 39.6911 -75.5142 262° West 272 313 10,000  Level FAA TRACON SMA TRACON (SMA)
02:03PM 39.6867 -75.5444 259° West 273 314 10,000  Level FAA TRACON SMA TRACON (SMA)
02:04PM 39.6825 -75.5739 260° West 272 313 10,000  Level FAA TRACON SMA TRACON (SMA)
02:04PM 39.6772 -75.6111 260° West 272 313 10,000  Level FAA TRACON SMA TRACON (SMA)
02:04PM 39.6736 -75.6386 260° West 273 314 10,000  Level FAA TRACON SMA TRACON (SMA)
02:05PM 39.6700 -75.6703 262° West 272 313 10,000  Level FAA TRACON SMA TRACON (SMA)
02:05PM 39.6658 -75.7011 260° West 274 315 10,000  Level FAA TRACON SMA TRACON (SMA)
02:05PM 39.6608 -75.7378 260° West 273 314 10,000  Level FAA TRACON SMA TRACON (SMA)
02:06PM 39.6569 -75.7681 261° West 273 314 10,000  Level FAA TRACON SMA TRACON (SMA)
02:06PM 39.6522 -75.8056 261° West 273 314 10,000  Level FAA TRACON SMA TRACON (SMA)
02:06PM 39.6489 -75.8347 262° West 273 314 10,000  Level FAA TRACON SMA TRACON (SMA)
02:07PM 39.6450 -75.8653 261° West 273 314 10,000  Level FAA TRACON SMA TRACON (SMA)
02:07PM 39.6400 -75.9028 260° West 274 315 10,000  Level FAA TRACON SMA TRACON (SMA)
02:07PM 39.6364 -75.9322 261° West 272 313 10,000  Level FAA TRACON SMA TRACON (SMA)
02:08PM 39.6325 -75.9619 260° West 272 313 10,000  Level FAA TRACON SMA TRACON (SMA)
02:08PM 39.6297 -75.9989 264° West 273 314 10,000  Level FAA TRACON SMA TRACON (SMA)
02:08PM 39.6236 -76.0294 255° West 273 314 10,000  Level FAA TRACON SMA TRACON (SMA)
02:09PM 39.6169 -76.0656 257° West 274 315 10,000  Level FAA TRACON SMA TRACON (SMA)
02:09PM 39.6028 -76.0914 235° Southwest 273 314 10,000  Level FAA TRACON SMA TRACON (SMA)
02:09PM 39.5864 -76.1139 227° Southwest 273 314 10,000  Level FAA TRACON SMA TRACON (SMA)
02:10PM 39.5669 -76.1406 227° Southwest 284 327 10,000  Level FAA TRACON SMA TRACON (SMA)
02:10PM 39.5617 -76.1453 215° Southwest 280 322 10,000  Level FAA TRACON SMA TRACON (SMA)
02:11PM 39.5167 -76.2167 231° Southwest 279 321 10,000  Level Potomac TRACON
02:12PM 39.4667 -76.2833 226° Southwest 278 320 10,000  Level Potomac TRACON
02:13PM 39.4000 -76.3500 218° Southwest 279 321 10,000  Level Potomac TRACON
02:14PM 39.3500 -76.4333 232° Southwest 278 320 10,000  Level Potomac TRACON
02:15PM 39.2833 -76.5000 218° Southwest 278 320 10,000  Level Potomac TRACON
02:16PM 39.2500 -76.5667 237° Southwest 279 321 10,000  Level Potomac TRACON
02:17PM 39.1833 -76.6500 224° Southwest 279 321 10,000  Level Potomac TRACON
02:18PM 39.1167 -76.7167 218° Southwest 279 321 10,000 -180 Level Potomac TRACON
02:19PM 39.0667 -76.7833 226° Southwest 277 319 9,700 -1,200 Descending Potomac TRACON
02:20PM 39.0167 -76.8500 226° Southwest 278 320 7,700 -1,740 Descending Potomac TRACON
02:21PM 38.9500 -76.9167 218° Southwest 272 313 6,100 -900 Descending Potomac TRACON
02:22PM 38.8833 -76.9500 201° Southwest 279 321 5,900 -900 Descending Potomac TRACON
02:23PM 38.8000 -76.9500 180° South 270 311 4,400 -1,440 Descending Potomac TRACON
02:24PM 38.7333 -76.9500 180° South 259 298 3,100 -960 Descending Potomac TRACON
02:25PM 38.7167 -77.0167 252° West 206 237 2,500 -600 Descending Potomac TRACON